<?xml version="1.0" encoding="UTF-8" standalone="no" ?>
<gpx xmlns="http://www.topografix.com/GPX/1/1" xmlns:xsi="http://www.w3.org/2001/XMLSchema-instance" xsi:schemaLocation="http://www.topografix.com/GPX/1/1 http://www.topografix.com/GPX/1/1/gpx.xsd" version="1.1" creator="VisuGPX - https://www.visugpx.com">
  <metadata>
    <name>Barneville_Hattainville_24km</name>
    <desc><![CDATA[gnerando idor:8166753]]></desc>
  </metadata>
  <trk>
    <name><![CDATA[Barneville_Hattainville_24.1km-8166753]]></name>
    <extensions>
      <line xmlns="http://www.topografix.com/GPX/gpx_style/0/2">
        <color>0000FF</color>
        <width>4</width>
      </line>
    </extensions>
    <trkseg>
      <trkpt lat="49.3658" lon="-1.75488">
        <ele>6</ele>
        <time>2023-11-13T06:54:42Z</time>
      </trkpt>
      <trkpt lat="49.36672" lon="-1.7542">
        <ele>5</ele>
        <time>2023-11-13T06:56:58Z</time>
      </trkpt>
      <trkpt lat="49.36823" lon="-1.75717">
        <ele>5</ele>
        <time>2023-11-13T07:02:26Z</time>
      </trkpt>
      <trkpt lat="49.36921" lon="-1.75584">
        <ele>4</ele>
        <time>2023-11-13T07:05:20Z</time>
      </trkpt>
      <trkpt lat="49.37131" lon="-1.75669">
        <ele>3</ele>
        <time>2023-11-13T07:10:10Z</time>
      </trkpt>
      <trkpt lat="49.37209" lon="-1.75601">
        <ele>6</ele>
        <time>2023-11-13T07:12:10Z</time>
      </trkpt>
      <trkpt lat="49.37295" lon="-1.75768">
        <ele>4</ele>
        <time>2023-11-13T07:15:15Z</time>
      </trkpt>
      <trkpt lat="49.37402" lon="-1.7588">
        <ele>5</ele>
        <time>2023-11-13T07:18:08Z</time>
      </trkpt>
      <trkpt lat="49.37301" lon="-1.76077">
        <ele>4</ele>
        <time>2023-11-13T07:21:45Z</time>
      </trkpt>
      <trkpt lat="49.37323" lon="-1.76416">
        <ele>4</ele>
        <time>2023-11-13T07:26:41Z</time>
      </trkpt>
      <trkpt lat="49.3758" lon="-1.77068">
        <ele>1</ele>
        <time>2023-11-13T07:37:44Z</time>
      </trkpt>
      <trkpt lat="49.37907" lon="-1.77107">
        <ele>4</ele>
        <time>2023-11-13T07:45:01Z</time>
      </trkpt>
      <trkpt lat="49.3803" lon="-1.77189">
        <ele>5</ele>
        <time>2023-11-13T07:48:00Z</time>
      </trkpt>
      <trkpt lat="49.38033" lon="-1.77253">
        <ele>4</ele>
        <time>2023-11-13T07:48:56Z</time>
      </trkpt>
      <trkpt lat="49.38131" lon="-1.77472">
        <ele>6</ele>
        <time>2023-11-13T07:52:47Z</time>
      </trkpt>
      <trkpt lat="49.38" lon="-1.77716">
        <ele>6</ele>
        <time>2023-11-13T07:57:22Z</time>
      </trkpt>
      <trkpt lat="49.37933" lon="-1.77944">
        <ele>6</ele>
        <time>2023-11-13T08:00:59Z</time>
      </trkpt>
      <trkpt lat="49.37868" lon="-1.77935">
        <ele>3</ele>
        <time>2023-11-13T08:02:26Z</time>
      </trkpt>
      <trkpt lat="49.3781" lon="-1.78291">
        <ele>6</ele>
        <time>2023-11-13T08:07:45Z</time>
      </trkpt>
      <trkpt lat="49.37784" lon="-1.7848">
        <ele>8</ele>
        <time>2023-11-13T08:10:33Z</time>
      </trkpt>
      <trkpt lat="49.37734" lon="-1.78489">
        <ele>6</ele>
        <time>2023-11-13T08:11:40Z</time>
      </trkpt>
      <trkpt lat="49.37698" lon="-1.78605">
        <ele>7</ele>
        <time>2023-11-13T08:13:32Z</time>
      </trkpt>
      <trkpt lat="49.37709" lon="-1.78626">
        <ele>7</ele>
        <time>2023-11-13T08:13:55Z</time>
      </trkpt>
      <trkpt lat="49.37586" lon="-1.78837">
        <ele>8</ele>
        <time>2023-11-13T08:18:01Z</time>
      </trkpt>
      <trkpt lat="49.37363" lon="-1.79008">
        <ele>9</ele>
        <time>2023-11-13T08:23:34Z</time>
      </trkpt>
      <trkpt lat="49.37365" lon="-1.79081">
        <ele>20</ele>
        <time>2023-11-13T08:24:37Z</time>
      </trkpt>
      <trkpt lat="49.37245" lon="-1.79111">
        <ele>27</ele>
        <time>2023-11-13T08:27:19Z</time>
      </trkpt>
      <trkpt lat="49.37212" lon="-1.79304">
        <ele>26</ele>
        <time>2023-11-13T08:30:13Z</time>
      </trkpt>
      <trkpt lat="49.37248" lon="-1.79454">
        <ele>21</ele>
        <time>2023-11-13T08:32:32Z</time>
      </trkpt>
      <trkpt lat="49.37295" lon="-1.7948">
        <ele>32</ele>
        <time>2023-11-13T08:33:38Z</time>
      </trkpt>
      <trkpt lat="49.37309" lon="-1.79978">
        <ele>30</ele>
        <time>2023-11-13T08:40:51Z</time>
      </trkpt>
      <trkpt lat="49.37234" lon="-1.79948">
        <ele>17</ele>
        <time>2023-11-13T08:42:35Z</time>
      </trkpt>
      <trkpt lat="49.37181" lon="-1.80008">
        <ele>14</ele>
        <time>2023-11-13T08:44:03Z</time>
      </trkpt>
      <trkpt lat="49.37184" lon="-1.80128">
        <ele>16</ele>
        <time>2023-11-13T08:45:47Z</time>
      </trkpt>
      <trkpt lat="49.3724" lon="-1.80175">
        <ele>33</ele>
        <time>2023-11-13T08:47:12Z</time>
      </trkpt>
      <trkpt lat="49.37265" lon="-1.80472">
        <ele>32</ele>
        <time>2023-11-13T08:51:33Z</time>
      </trkpt>
      <trkpt lat="49.37231" lon="-1.80884">
        <ele>7</ele>
        <time>2023-11-13T08:57:33Z</time>
      </trkpt>
      <trkpt lat="49.37287" lon="-1.80926">
        <ele>6</ele>
        <time>2023-11-13T08:58:57Z</time>
      </trkpt>
      <trkpt lat="49.37321" lon="-1.80866">
        <ele>21</ele>
        <time>2023-11-13T09:00:06Z</time>
      </trkpt>
      <trkpt lat="49.37377" lon="-1.80914">
        <ele>12</ele>
        <time>2023-11-13T09:01:31Z</time>
      </trkpt>
      <trkpt lat="49.37617" lon="-1.80772">
        <ele>21</ele>
        <time>2023-11-13T09:07:14Z</time>
      </trkpt>
      <trkpt lat="49.376" lon="-1.80549">
        <ele>38</ele>
        <time>2023-11-13T09:10:30Z</time>
      </trkpt>
      <trkpt lat="49.37689" lon="-1.80184">
        <ele>60</ele>
        <time>2023-11-13T09:16:08Z</time>
      </trkpt>
      <trkpt lat="49.3779" lon="-1.8021">
        <ele>58</ele>
        <time>2023-11-13T09:18:25Z</time>
      </trkpt>
      <trkpt lat="49.37879" lon="-1.80291">
        <ele>58</ele>
        <time>2023-11-13T09:20:43Z</time>
      </trkpt>
      <trkpt lat="49.37972" lon="-1.80467">
        <ele>51</ele>
        <time>2023-11-13T09:24:00Z</time>
      </trkpt>
      <trkpt lat="49.38008" lon="-1.80815">
        <ele>26</ele>
        <time>2023-11-13T09:29:06Z</time>
      </trkpt>
      <trkpt lat="49.38072" lon="-1.80965">
        <ele>22</ele>
        <time>2023-11-13T09:31:42Z</time>
      </trkpt>
      <trkpt lat="49.38173" lon="-1.80905">
        <ele>26</ele>
        <time>2023-11-13T09:34:06Z</time>
      </trkpt>
      <trkpt lat="49.38223" lon="-1.80678">
        <ele>47</ele>
        <time>2023-11-13T09:37:34Z</time>
      </trkpt>
      <trkpt lat="49.38354" lon="-1.80553">
        <ele>60</ele>
        <time>2023-11-13T09:41:00Z</time>
      </trkpt>
      <trkpt lat="49.3843" lon="-1.80557">
        <ele>66</ele>
        <time>2023-11-13T09:42:42Z</time>
      </trkpt>
      <trkpt lat="49.38458" lon="-1.80433">
        <ele>65</ele>
        <time>2023-11-13T09:44:36Z</time>
      </trkpt>
      <trkpt lat="49.38444" lon="-1.80154">
        <ele>59</ele>
        <time>2023-11-13T09:48:39Z</time>
      </trkpt>
      <trkpt lat="49.38407" lon="-1.80034">
        <ele>59</ele>
        <time>2023-11-13T09:50:34Z</time>
      </trkpt>
      <trkpt lat="49.38352" lon="-1.80042">
        <ele>64</ele>
        <time>2023-11-13T09:51:48Z</time>
      </trkpt>
      <trkpt lat="49.38313" lon="-1.8">
        <ele>69</ele>
        <time>2023-11-13T09:52:51Z</time>
      </trkpt>
      <trkpt lat="49.38296" lon="-1.80051">
        <ele>67</ele>
        <time>2023-11-13T09:53:41Z</time>
      </trkpt>
      <trkpt lat="49.38251" lon="-1.80068">
        <ele>68</ele>
        <time>2023-11-13T09:54:43Z</time>
      </trkpt>
      <trkpt lat="49.38234" lon="-1.80141">
        <ele>66</ele>
        <time>2023-11-13T09:55:50Z</time>
      </trkpt>
      <trkpt lat="49.38254" lon="-1.80214">
        <ele>64</ele>
        <time>2023-11-13T09:56:59Z</time>
      </trkpt>
      <trkpt lat="49.38173" lon="-1.80296">
        <ele>66</ele>
        <time>2023-11-13T09:59:09Z</time>
      </trkpt>
      <trkpt lat="49.38299" lon="-1.80369">
        <ele>63</ele>
        <time>2023-11-13T10:02:08Z</time>
      </trkpt>
      <trkpt lat="49.3855" lon="-1.80454">
        <ele>67</ele>
        <time>2023-11-13T10:07:51Z</time>
      </trkpt>
      <trkpt lat="49.3874" lon="-1.80472">
        <ele>68</ele>
        <time>2023-11-13T10:12:05Z</time>
      </trkpt>
      <trkpt lat="49.38776" lon="-1.80506">
        <ele>68</ele>
        <time>2023-11-13T10:13:02Z</time>
      </trkpt>
      <trkpt lat="49.39273" lon="-1.80506">
        <ele>56</ele>
        <time>2023-11-13T10:24:05Z</time>
      </trkpt>
      <trkpt lat="49.39416" lon="-1.80463">
        <ele>57</ele>
        <time>2023-11-13T10:27:19Z</time>
      </trkpt>
      <trkpt lat="49.39338" lon="-1.80605">
        <ele>61</ele>
        <time>2023-11-13T10:30:01Z</time>
      </trkpt>
      <trkpt lat="49.39285" lon="-1.81017">
        <ele>64</ele>
        <time>2023-11-13T10:36:06Z</time>
      </trkpt>
      <trkpt lat="49.39201" lon="-1.81034">
        <ele>58</ele>
        <time>2023-11-13T10:37:59Z</time>
      </trkpt>
      <trkpt lat="49.39209" lon="-1.8118">
        <ele>59</ele>
        <time>2023-11-13T10:40:06Z</time>
      </trkpt>
      <trkpt lat="49.39173" lon="-1.81227">
        <ele>61</ele>
        <time>2023-11-13T10:41:09Z</time>
      </trkpt>
      <trkpt lat="49.39165" lon="-1.81313">
        <ele>63</ele>
        <time>2023-11-13T10:42:24Z</time>
      </trkpt>
      <trkpt lat="49.39229" lon="-1.81394">
        <ele>55</ele>
        <time>2023-11-13T10:44:15Z</time>
      </trkpt>
      <trkpt lat="49.3926" lon="-1.81514">
        <ele>36</ele>
        <time>2023-11-13T10:46:07Z</time>
      </trkpt>
      <trkpt lat="49.39458" lon="-1.81673">
        <ele>22</ele>
        <time>2023-11-13T10:51:05Z</time>
      </trkpt>
      <trkpt lat="49.39712" lon="-1.81626">
        <ele>18</ele>
        <time>2023-11-13T10:56:47Z</time>
      </trkpt>
      <trkpt lat="49.39746" lon="-1.81536">
        <ele>20</ele>
        <time>2023-11-13T10:58:17Z</time>
      </trkpt>
      <trkpt lat="49.39818" lon="-1.81326">
        <ele>33</ele>
        <time>2023-11-13T11:01:43Z</time>
      </trkpt>
      <trkpt lat="49.39748" lon="-1.81266">
        <ele>55</ele>
        <time>2023-11-13T11:03:30Z</time>
      </trkpt>
      <trkpt lat="49.39704" lon="-1.81317">
        <ele>54</ele>
        <time>2023-11-13T11:04:44Z</time>
      </trkpt>
      <trkpt lat="49.39665" lon="-1.81313">
        <ele>60</ele>
        <time>2023-11-13T11:05:36Z</time>
      </trkpt>
      <trkpt lat="49.39614" lon="-1.81278">
        <ele>66</ele>
        <time>2023-11-13T11:06:51Z</time>
      </trkpt>
      <trkpt lat="49.39611" lon="-1.80437">
        <ele>68</ele>
        <time>2023-11-13T11:19:01Z</time>
      </trkpt>
      <trkpt lat="49.39651" lon="-1.8024">
        <ele>61</ele>
        <time>2023-11-13T11:22:00Z</time>
      </trkpt>
      <trkpt lat="49.39924" lon="-1.79961">
        <ele>68</ele>
        <time>2023-11-13T11:29:18Z</time>
      </trkpt>
      <trkpt lat="49.39938" lon="-1.79854">
        <ele>68</ele>
        <time>2023-11-13T11:30:52Z</time>
      </trkpt>
      <trkpt lat="49.39921" lon="-1.79656">
        <ele>69</ele>
        <time>2023-11-13T11:33:46Z</time>
      </trkpt>
      <trkpt lat="49.39997" lon="-1.79326">
        <ele>72</ele>
        <time>2023-11-13T11:38:50Z</time>
      </trkpt>
      <trkpt lat="49.40042" lon="-1.78901">
        <ele>64</ele>
        <time>2023-11-13T11:45:04Z</time>
      </trkpt>
      <trkpt lat="49.40036" lon="-1.78798">
        <ele>61</ele>
        <time>2023-11-13T11:46:34Z</time>
      </trkpt>
      <trkpt lat="49.40081" lon="-1.78725">
        <ele>63</ele>
        <time>2023-11-13T11:48:01Z</time>
      </trkpt>
      <trkpt lat="49.40142" lon="-1.77965">
        <ele>88</ele>
        <time>2023-11-13T11:59:06Z</time>
      </trkpt>
      <trkpt lat="49.40215" lon="-1.77884">
        <ele>89</ele>
        <time>2023-11-13T12:01:06Z</time>
      </trkpt>
      <trkpt lat="49.40192" lon="-1.77772">
        <ele>86</ele>
        <time>2023-11-13T12:02:48Z</time>
      </trkpt>
      <trkpt lat="49.40318" lon="-1.77686">
        <ele>83</ele>
        <time>2023-11-13T12:05:52Z</time>
      </trkpt>
      <trkpt lat="49.40265" lon="-1.77536">
        <ele>77</ele>
        <time>2023-11-13T12:08:20Z</time>
      </trkpt>
      <trkpt lat="49.40201" lon="-1.7745">
        <ele>73</ele>
        <time>2023-11-13T12:10:14Z</time>
      </trkpt>
      <trkpt lat="49.40184" lon="-1.77382">
        <ele>70</ele>
        <time>2023-11-13T12:11:17Z</time>
      </trkpt>
      <trkpt lat="49.40223" lon="-1.77279">
        <ele>66</ele>
        <time>2023-11-13T12:13:01Z</time>
      </trkpt>
      <trkpt lat="49.40148" lon="-1.77004">
        <ele>49</ele>
        <time>2023-11-13T12:17:19Z</time>
      </trkpt>
      <trkpt lat="49.40173" lon="-1.76781">
        <ele>51</ele>
        <time>2023-11-13T12:20:36Z</time>
      </trkpt>
      <trkpt lat="49.4048" lon="-1.76841">
        <ele>52</ele>
        <time>2023-11-13T12:27:29Z</time>
      </trkpt>
      <trkpt lat="49.40533" lon="-1.76644">
        <ele>64</ele>
        <time>2023-11-13T12:30:34Z</time>
      </trkpt>
      <trkpt lat="49.4053" lon="-1.76399">
        <ele>68</ele>
        <time>2023-11-13T12:34:07Z</time>
      </trkpt>
      <trkpt lat="49.40561" lon="-1.76352">
        <ele>73</ele>
        <time>2023-11-13T12:35:05Z</time>
      </trkpt>
      <trkpt lat="49.40472" lon="-1.76214">
        <ele>74</ele>
        <time>2023-11-13T12:37:54Z</time>
      </trkpt>
      <trkpt lat="49.40402" lon="-1.76219">
        <ele>72</ele>
        <time>2023-11-13T12:39:27Z</time>
      </trkpt>
      <trkpt lat="49.40329" lon="-1.76322">
        <ele>72</ele>
        <time>2023-11-13T12:41:39Z</time>
      </trkpt>
      <trkpt lat="49.40338" lon="-1.76249">
        <ele>74</ele>
        <time>2023-11-13T12:42:44Z</time>
      </trkpt>
      <trkpt lat="49.40217" lon="-1.76236">
        <ele>70</ele>
        <time>2023-11-13T12:45:26Z</time>
      </trkpt>
      <trkpt lat="49.40173" lon="-1.76159">
        <ele>69</ele>
        <time>2023-11-13T12:46:55Z</time>
      </trkpt>
      <trkpt lat="49.40095" lon="-1.76159">
        <ele>67</ele>
        <time>2023-11-13T12:48:39Z</time>
      </trkpt>
      <trkpt lat="49.40008" lon="-1.7603">
        <ele>68</ele>
        <time>2023-11-13T12:51:20Z</time>
      </trkpt>
      <trkpt lat="49.39908" lon="-1.75807">
        <ele>61</ele>
        <time>2023-11-13T12:55:15Z</time>
      </trkpt>
      <trkpt lat="49.39824" lon="-1.75219">
        <ele>52</ele>
        <time>2023-11-13T13:03:58Z</time>
      </trkpt>
      <trkpt lat="49.39617" lon="-1.75129">
        <ele>30</ele>
        <time>2023-11-13T13:08:45Z</time>
      </trkpt>
      <trkpt lat="49.39698" lon="-1.75996">
        <ele>37</ele>
        <time>2023-11-13T13:21:26Z</time>
      </trkpt>
      <trkpt lat="49.39558" lon="-1.75884">
        <ele>37</ele>
        <time>2023-11-13T13:24:57Z</time>
      </trkpt>
      <trkpt lat="49.3955" lon="-1.75837">
        <ele>40</ele>
        <time>2023-11-13T13:25:39Z</time>
      </trkpt>
      <trkpt lat="49.39458" lon="-1.75871">
        <ele>49</ele>
        <time>2023-11-13T13:27:45Z</time>
      </trkpt>
      <trkpt lat="49.39338" lon="-1.75815">
        <ele>57</ele>
        <time>2023-11-13T13:30:32Z</time>
      </trkpt>
      <trkpt lat="49.38885" lon="-1.76257">
        <ele>58</ele>
        <time>2023-11-13T13:42:29Z</time>
      </trkpt>
      <trkpt lat="49.38854" lon="-1.7612">
        <ele>44</ele>
        <time>2023-11-13T13:44:35Z</time>
      </trkpt>
      <trkpt lat="49.3874" lon="-1.76232">
        <ele>32</ele>
        <time>2023-11-13T13:47:35Z</time>
      </trkpt>
      <trkpt lat="49.3843" lon="-1.76034">
        <ele>12</ele>
        <time>2023-11-13T13:55:03Z</time>
      </trkpt>
      <trkpt lat="49.38388" lon="-1.75845">
        <ele>15</ele>
        <time>2023-11-13T13:57:57Z</time>
      </trkpt>
      <trkpt lat="49.38307" lon="-1.75862">
        <ele>19</ele>
        <time>2023-11-13T13:59:46Z</time>
      </trkpt>
      <trkpt lat="49.38262" lon="-1.75785">
        <ele>20</ele>
        <time>2023-11-13T14:01:16Z</time>
      </trkpt>
      <trkpt lat="49.38195" lon="-1.7597">
        <ele>12</ele>
        <time>2023-11-13T14:04:20Z</time>
      </trkpt>
      <trkpt lat="49.38178" lon="-1.7579">
        <ele>15</ele>
        <time>2023-11-13T14:06:58Z</time>
      </trkpt>
      <trkpt lat="49.38089" lon="-1.75305">
        <ele>30</ele>
        <time>2023-11-13T14:14:15Z</time>
      </trkpt>
      <trkpt lat="49.37662" lon="-1.75644">
        <ele>7</ele>
        <time>2023-11-13T14:24:57Z</time>
      </trkpt>
      <trkpt lat="49.37569" lon="-1.75781">
        <ele>5</ele>
        <time>2023-11-13T14:27:49Z</time>
      </trkpt>
      <trkpt lat="49.37382" lon="-1.75901">
        <ele>4</ele>
        <time>2023-11-13T14:32:19Z</time>
      </trkpt>
      <trkpt lat="49.37186" lon="-1.75584">
        <ele>5</ele>
        <time>2023-11-13T14:38:39Z</time>
      </trkpt>
      <trkpt lat="49.37086" lon="-1.75678">
        <ele>2</ele>
        <time>2023-11-13T14:41:15Z</time>
      </trkpt>
      <trkpt lat="49.36921" lon="-1.75571">
        <ele>4</ele>
        <time>2023-11-13T14:45:15Z</time>
      </trkpt>
      <trkpt lat="49.36815" lon="-1.75742">
        <ele>5</ele>
        <time>2023-11-13T14:48:40Z</time>
      </trkpt>
      <trkpt lat="49.36664" lon="-1.75399">
        <ele>5</ele>
        <time>2023-11-13T14:54:39Z</time>
      </trkpt>
      <trkpt lat="49.36577" lon="-1.75481">
        <ele>6</ele>
        <time>2023-11-13T14:56:56Z</time>
      </trkpt>
    </trkseg>
  </trk>
</gpx>